Latest Weather Observations for Centre Island

IDD60801

Issued at 6:35 am CST Friday 18 April 2014 (issued every 30 minutes, with the page automatically refreshed every 10 minutes)

About weather observations | Map of weather stations | Latest weather observations for NT | Other Formats
Station Details ID: 014703 Name: CENTRE ISLAND Lat: -15.74 Lon: 136.82 Height: 12.2 m
Data from the previous 72 hours. | See also: Recent months at Centre Island
Date/Time
CST
Temp
°C
App
Temp
°C
Dew
Point
Rel
Hum
%
Delta-T
°C
Wind Press
QNH
hPa
Press
MSL
hPa
Rain
since 9 am
mm
Dir
 
Spd
km/h
Gust
km/h
Spd
kts
Gust
kts
18/06:30am 27.3 27.6 24.2 83 2.1 S 30 37 16 20 1011.2 - 10.4
18/06:00am 27.0 27.3 24.3 85 1.9 S 30 35 16 19 1010.9 1010.8 10.4
18/05:30am 26.8 26.6 24.3 86 1.7 S 33 43 18 23 1010.8 - 10.4
18/05:25am 26.8 27.2 24.5 87 1.6 S 30 43 16 23 1010.8 - 10.4
18/05:00am 26.9 29.4 24.5 87 1.7 S 19 20 10 11 1010.6 - 10.4
18/04:30am 27.0 29.7 24.8 88 1.5 S 19 20 10 11 1010.6 - 10.4
18/04:00am 26.9 29.8 24.5 87 1.7 S 17 20 9 11 1010.6 - 10.4
18/03:30am 27.7 31.9 25.3 87 1.7 S 13 17 7 9 1010.8 - 10.4
18/03:00am 27.8 32.2 25.0 85 2.0 SE 11 15 6 8 1010.7 1010.6 10.4
18/02:30am 27.7 31.6 24.9 85 2.0 SE 13 17 7 9 1010.8 - 10.4
18/02:00am 27.8 31.8 25.0 85 2.0 SE 13 15 7 8 1010.9 - 10.4
18/01:30am 27.9 31.9 25.1 85 2.0 ESE 13 15 7 8 1011.2 - 10.4
18/01:00am 27.7 31.2 24.9 85 2.0 SE 15 17 8 9 1011.4 - 10.4
18/12:30am 27.7 31.6 24.9 85 2.0 SE 13 15 7 8 1012.0 - 10.4
18/12:00am 27.7 31.6 24.9 85 2.0 SE 13 15 7 8 1012.5 1012.4 10.4
 
Date/Time
CST
Temp
°C
App
Temp
°C
Dew
Point
Rel
Hum
%
Delta-T
°C
Wind Press
QNH
hPa
Press
MSL
hPa
Rain
since 9 am
mm
Dir
 
Spd
km/h
Gust
km/h
Spd
kts
Gust
kts
17/11:30pm 27.7 31.2 24.9 85 2.0 ESE 15 17 8 9 1012.8 - 10.4
17/11:00pm 27.7 30.9 24.9 85 2.0 ESE 17 20 9 11 1013.0 - 10.4
17/10:30pm 27.8 30.9 24.8 84 2.1 SE 17 19 9 10 1013.2 - 10.4
17/10:00pm 27.5 30.0 24.5 84 2.1 SSE 19 22 10 12 1013.2 - 10.4
17/09:30pm 27.9 30.7 24.9 84 2.1 SE 19 20 10 11 1013.2 - 10.4
17/09:00pm 27.9 30.9 24.7 83 2.2 SE 17 20 9 11 1013.1 1013.0 10.4
17/08:30pm 27.7 30.0 24.5 83 2.2 SE 20 24 11 13 1012.8 - 10.4
17/08:00pm 27.8 30.0 24.2 81 2.5 SE 20 24 11 13 1012.6 - 10.4
17/07:30pm 27.4 29.4 24.5 84 2.0 SSE 22 26 12 14 1012.2 - 10.4
17/07:00pm 27.9 29.4 24.9 84 2.1 SSE 26 30 14 16 1011.8 - 10.4
17/06:30pm 28.3 27.9 24.1 78 2.9 SE 33 37 18 20 1011.4 - 10.4
17/06:00pm 28.5 29.5 24.1 77 3.0 ESE 26 30 14 16 1011.2 1011.1 10.4
17/05:30pm 28.8 29.6 24.4 77 3.1 ESE 28 35 15 19 1010.8 - 10.4
17/05:00pm 29.0 29.9 23.9 74 3.5 ESE 26 30 14 16 1010.4 - 10.4
17/04:30pm 28.9 30.2 24.0 75 3.4 E 24 32 13 17 1010.2 - 10.4
17/04:00pm 27.8 29.3 24.4 82 2.4 E 24 35 13 19 1010.3 - 10.4
17/03:30pm 28.0 30.8 25.2 85 2.0 E 20 26 11 14 1010.3 - 9.2
17/03:00pm 28.0 31.2 25.6 87 1.7 E 19 24 10 13 1010.0 1009.9 9.2
17/02:30pm 26.4 25.7 24.8 91 1.1 E 37 44 20 24 1010.3 - 9.0
17/02:10pm 26.6 23.8 24.1 86 1.7 ESE 46 57 25 31 1010.6 - 6.2
17/02:01pm 30.5 30.9 23.7 67 4.7 E 28 56 15 30 1010.6 - 5.8
17/02:00pm 31.0 31.9 23.9 66 4.9 E 26 35 14 19 1010.6 - 5.8
17/01:30pm 30.8 31.7 24.0 67 4.7 E 26 35 14 19 1010.8 - 5.8
17/01:00pm 29.8 29.7 24.2 72 3.9 E 32 39 17 21 1011.1 - 5.8
17/12:30pm 29.5 29.2 23.9 72 3.9 ENE 32 43 17 23 1011.5 - 5.6
17/12:00pm 30.2 30.5 24.8 73 3.8 E 32 39 17 21 1011.7 1011.6 5.6
17/11:30am 29.6 30.4 24.5 74 3.6 E 28 33 15 18 1012.1 - 5.6
17/11:00am 28.5 30.7 25.5 84 2.1 SE 24 26 13 14 1012.2 - 5.4
17/10:30am 27.6 29.4 24.8 85 2.0 SE 24 30 13 16 1012.5 - 5.4
17/10:00am 25.7 24.6 24.1 91 1.1 SE 37 46 20 25 1012.9 - 5.4
17/09:30am 25.3 22.9 23.9 92 1.0 SE 43 52 23 28 1013.0 - 5.2
17/09:00am 26.9 27.0 24.5 87 1.7 ESE 32 35 17 19 1012.6 1012.5 0.0
17/08:47am 27.4 26.1 23.8 81 2.5 ESE 37 43 20 23 1012.2 - 0.0
17/08:33am 27.2 23.9 22.2 74 3.4 E 43 59 23 32 1012.1 - 0.0
17/08:30am 27.6 24.4 23.4 78 2.9 ESE 46 59 25 32 1012.1 - 0.0
17/08:24am 28.2 26.0 24.2 79 2.8 ESE 43 48 23 26 1012.0 - 0.0
17/08:00am 28.1 28.2 23.9 78 2.9 SSE 30 33 16 18 1011.4 - 0.0
17/07:30am 27.9 28.3 23.7 78 2.9 SSE 28 32 15 17 1011.4 - 0.0
17/07:00am 27.5 27.0 23.5 79 2.7 SSE 32 35 17 19 1011.3 - 0.0
17/06:30am 27.5 27.1 23.7 80 2.6 SSE 32 35 17 19 1011.3 - 0.0
17/06:00am 27.5 28.1 24.1 82 2.4 S 28 33 15 18 1010.7 1010.6 0.0
17/05:30am 27.2 27.4 24.1 83 2.1 S 30 37 16 20 1010.5 - 0.0
17/05:00am 27.7 28.8 24.3 82 2.4 SSE 26 33 14 18 1010.4 - 0.0
17/04:30am 28.0 30.7 24.8 83 2.2 SE 19 20 10 11 1009.8 - 0.0
17/04:00am 28.2 31.3 24.8 82 2.4 SE 17 19 9 10 1009.7 - 0.0
17/03:30am 28.3 31.8 24.9 82 2.4 SSE 15 17 8 9 1009.6 - 0.0
17/03:00am 28.9 32.2 25.1 80 2.7 ESE 17 20 9 11 1009.7 1009.6 0.0
17/02:30am 28.8 31.9 24.1 76 3.3 E 15 19 8 10 1009.9 - 0.0
17/02:00am 28.8 32.0 24.4 77 3.1 E 15 19 8 10 1010.0 - 0.0
17/01:30am 28.7 32.3 24.3 77 3.1 E 13 15 7 8 1010.2 - 0.0
17/01:00am 28.7 32.8 24.5 78 2.9 E 11 15 6 8 1010.4 - 0.0
17/12:30am 28.7 32.3 24.3 77 3.1 E 13 15 7 8 1010.7 - 0.0
17/12:00am 28.7 32.0 23.8 75 3.4 E 13 15 7 8 1010.9 1010.8 0.0
 
Date/Time
CST
Temp
°C
App
Temp
°C
Dew
Point
Rel
Hum
%
Delta-T
°C
Wind Press
QNH
hPa
Press
MSL
hPa
Rain
since 9 am
mm
Dir
 
Spd
km/h
Gust
km/h
Spd
kts
Gust
kts
16/11:30pm 28.8 32.4 23.7 74 3.5 ENE 11 15 6 8 1011.1 - 0.0
16/11:00pm 29.0 31.5 23.2 71 4.0 ENE 15 17 8 9 1011.2 - 0.0
16/10:30pm 29.2 31.4 23.2 70 4.1 ENE 17 20 9 11 1011.3 - 0.0
16/10:00pm 29.3 31.1 23.3 70 4.1 ENE 19 24 10 13 1011.5 - 0.0
16/09:30pm 29.3 31.2 22.8 68 4.4 ENE 17 20 9 11 1011.4 - 0.0
16/09:00pm 29.4 31.2 23.3 69 4.2 ENE 19 24 10 13 1011.1 1011.0 0.0
16/08:30pm 29.3 31.3 23.0 69 4.3 NE 17 20 9 11 1010.7 - 0.0
16/08:00pm 29.4 31.5 23.1 69 4.3 ENE 17 22 9 12 1010.4 - 0.0
16/07:30pm 29.4 31.6 22.6 67 4.6 NE 15 20 8 11 1010.2 - 0.0
16/07:00pm 29.5 31.0 22.7 67 4.6 NE 19 20 10 11 1009.9 - 0.0
16/06:30pm 29.7 30.8 21.9 63 5.3 NE 19 22 10 12 1009.7 - 0.0
16/06:00pm 30.0 31.6 22.2 63 5.3 NE 17 20 9 11 1009.5 1009.4 0.0
16/05:30pm 30.7 32.6 22.0 59 5.9 NNE 15 19 8 10 1009.3 - 0.0
16/05:00pm 31.4 33.3 22.1 57 6.3 NNE 15 20 8 11 1009.2 - 0.0
16/04:30pm 31.7 32.8 21.2 53 7.1 NNE 17 20 9 11 1008.9 - 0.0
16/04:00pm 32.6 34.2 22.1 54 7.2 NE 17 24 9 13 1008.9 - 0.0
16/03:30pm 32.7 34.4 20.9 49 7.9 NNE 13 19 7 10 1008.8 - 0.0
16/03:00pm 33.3 35.2 22.1 52 7.7 NNE 15 19 8 10 1009.0 1008.9 0.0
16/02:30pm 33.3 34.9 21.5 50 8.0 NNE 15 20 8 11 1009.2 - 0.0
16/02:00pm 33.2 33.5 19.7 45 8.9 SE 17 20 9 11 1009.3 - 0.0
16/01:30pm 33.0 34.2 19.8 45 8.7 SE 13 17 7 9 1009.5 - 0.0
16/01:00pm 32.4 35.1 21.3 52 7.5 SE 9 13 5 7 1009.7 - 0.0
16/12:30pm 31.9 34.8 21.7 54 6.9 ESE 9 11 5 6 1010.0 - 0.0
16/12:00pm 31.8 34.1 20.7 51 7.4 SE 9 11 5 6 1010.3 1010.2 0.0
16/11:30am 31.8 33.9 20.1 50 7.7 SSE 9 11 5 6 1010.9 - 0.0
16/11:00am 31.8 33.7 21.3 53 7.1 SE 13 17 7 9 1011.3 - 0.0
16/10:30am 31.1 33.7 22.7 61 5.7 SSE 13 17 7 9 1011.5 - 0.0
16/10:00am 30.7 32.5 22.6 62 5.5 SSE 17 19 9 10 1011.6 - 0.0
16/09:30am 30.3 32.2 22.7 64 5.2 SSE 17 19 9 10 1011.6 - 0.0
16/09:00am 29.9 31.3 22.6 65 5.0 SSE 19 20 10 11 1011.4 1011.3 0.0
16/08:30am 29.3 30.9 22.8 68 4.4 SSE 19 22 10 12 1011.2 - 0.0
16/08:00am 28.7 30.2 22.7 70 4.1 S 19 20 10 11 1011.0 - 0.0
16/07:30am 28.1 29.5 22.6 72 3.7 S 19 22 10 12 1010.8 - 0.0
16/07:00am 27.4 28.8 22.8 76 3.1 SSE 20 22 11 12 1010.7 - 0.0
16/06:30am 27.1 28.5 22.9 78 2.9 S 20 24 11 13 1010.6 - 0.0
16/06:00am 27.3 28.7 23.5 80 2.6 S 22 28 12 15 1010.4 1010.3 0.0
16/05:30am 27.0 27.9 23.3 80 2.5 S 24 28 13 15 1010.2 - 0.0
16/05:00am 26.9 28.1 23.2 80 2.5 S 22 30 12 16 1010.1 - 0.0
16/04:30am 27.3 30.7 24.0 82 2.3 S 13 15 7 8 1009.5 - 0.0
16/04:00am 27.4 30.7 23.8 81 2.5 S 13 15 7 8 1009.5 - 0.0
16/03:30am 27.5 30.8 23.9 81 2.5 S 13 15 7 8 1009.3 - 0.0
16/03:00am 27.3 31.1 24.0 82 2.3 SSW 11 15 6 8 1009.4 1009.3 0.0
16/02:30am 27.0 31.5 23.9 83 2.1 NNW 7 9 4 5 1009.3 - 0.0
16/02:00am 27.1 31.2 24.0 83 2.1 NNW 9 11 5 6 1009.5 - 0.0
16/01:30am 26.7 31.1 22.8 79 2.6 NNW 4 6 2 3 1009.6 - 0.0
16/01:00am 26.9 32.3 23.2 80 2.5 CALM 0 0 0 0 1009.8 - 0.0
16/12:30am 27.1 32.5 23.3 80 2.6 CALM 0 0 0 0 1010.1 - 0.0
16/12:00am 27.1 32.1 22.5 76 3.1 CALM 0 0 0 0 1010.3 1010.2 0.0
 
Date/Time
CST
Temp
°C
App
Temp
°C
Dew
Point
Rel
Hum
%
Delta-T
°C
Wind Press
QNH
hPa
Press
MSL
hPa
Rain
since 9 am
mm
Dir
 
Spd
km/h
Gust
km/h
Spd
kts
Gust
kts
15/11:30pm 27.4 31.9 22.3 73 3.4 NNW 2 6 1 3 1010.5 - 0.0
15/11:00pm 27.8 31.7 22.5 73 3.6 N 6 7 3 4 1010.5 - 0.0
15/10:30pm 28.9 31.9 22.6 69 4.3 NNE 11 13 6 7 1010.6 - 0.0
15/10:00pm 28.9 32.4 22.9 70 4.1 NNE 9 13 5 7 1010.6 - 0.0
15/09:30pm 29.0 31.8 23.0 70 4.1 NE 13 17 7 9 1010.7 - 0.0
15/09:00pm 29.0 31.5 22.5 68 4.4 NE 13 17 7 9 1010.8 1010.7 0.0
15/08:30pm 29.1 31.1 22.3 66 4.6 NE 15 20 8 11 1010.6 - 0.0
15/08:00pm 29.2 31.3 22.4 66 4.6 ENE 15 20 8 11 1010.1 - 0.0
15/07:30pm 29.4 31.1 21.6 63 5.2 ENE 15 19 8 10 1009.6 - 0.0
15/07:00pm 29.6 30.7 21.3 61 5.6 ENE 17 20 9 11 1009.2 - 0.0
15/06:30pm 30.0 30.5 20.8 57 6.1 E 19 20 10 11 1008.9 - 0.0
15/06:00pm 30.6 31.1 21.1 57 6.4 E 20 24 11 13 1008.6 1008.5 0.0
15/05:30pm 31.2 32.5 20.8 54 6.9 NNE 15 20 8 11 1008.3 - 0.0
15/05:00pm 31.9 33.3 21.1 52 7.2 NNE 15 19 8 10 1008.1 - 0.0
15/04:30pm 33.0 34.7 20.9 49 8.1 NNE 13 19 7 10 1008.0 - 0.0
15/04:00pm 33.7 35.0 19.4 43 9.4 NNE 11 17 6 9 1008.0 - 0.0
15/03:30pm 33.5 33.8 15.9 34 11.0 NE 9 13 5 7 1007.8 - 0.0
15/03:00pm 34.0 34.8 17.2 36 10.8 NE 9 13 5 7 1008.0 1007.9 0.0
15/02:30pm 32.5 33.1 16.8 39 9.9 ENE 9 11 5 6 1008.4 - 0.0
15/02:00pm 33.3 33.8 16.6 36 10.6 E 9 11 5 6 1008.7 - 0.0
15/01:30pm 32.7 33.6 16.5 37 10.2 E 7 11 4 6 1009.2 - 0.0
15/01:00pm 32.2 33.2 16.9 40 9.7 ESE 7 9 4 5 1009.5 - 0.0
15/12:30pm 32.0 32.9 16.7 40 9.7 SSE 7 11 4 6 1010.0 - 0.0
15/12:00pm 31.7 32.3 16.8 40 9.4 SSE 9 11 5 6 1010.3 1010.2 0.0
15/11:30am 31.9 32.2 17.0 41 9.4 SE 11 15 6 8 1010.7 - 0.0
15/11:00am 31.0 30.5 15.8 40 9.4 SSE 13 17 7 9 1011.0 - 0.0
15/10:30am 30.4 29.4 15.7 41 9.1 SSE 15 17 8 9 1011.2 - 0.0
15/10:00am 30.0 28.4 16.1 43 8.6 SSE 19 24 10 13 1011.4 - 0.0
15/09:30am 29.6 28.5 16.4 45 8.2 S 17 22 9 12 1011.3 - 0.0
15/09:00am 28.4 27.1 16.7 49 7.3 SSW 19 24 10 13 1011.3 1011.2 0.0
15/08:30am 28.2 26.9 15.8 47 7.6 SSW 17 24 9 13 1011.0 - 0.0
15/08:00am 27.6 26.3 15.9 49 7.2 SW 17 26 9 14 1010.7 - 0.0
15/07:30am 27.1 25.4 15.8 50 6.9 SW 19 24 10 13 1010.5 - 0.0
15/07:00am 26.8 24.9 15.8 51 6.7 SW 20 28 11 15 1010.3 - 0.0

Other Formats:

Comma delimited format used in spreadsheet applications
http://www.bom.gov.au/fwo/IDD60801/IDD60801.94248.axf

JavaScript Object Notation format (JSON) in row-major order
http://www.bom.gov.au/fwo/IDD60801/IDD60801.94248.json